Time;durP1;ratioP1;P1;durP2;ratioP2;P2;SDS_P1;SDS_P2;PMS_P1;PMS_P2;Temp;Humidity;BMP_temperature;BMP_pressure;BME280_temperature;BME280_humidity;BME280_pressure;Samples;Min_cycle;Max_cycle;Signal;HPM_P1;HPM_P2
2022/12/05 00:00:49;;;;;;;31.03;19.33;;;2.70;99.90;;;;;;5036335;28;20646;-85
2022/12/05 00:03:15;;;;;;;35.33;18.98;;;2.80;99.90;;;;;;5054452;28;20176;-86
2022/12/05 00:05:41;;;;;;;29.03;17.40;;;2.80;99.90;;;;;;5056802;28;20648;-85
2022/12/05 00:08:07;;;;;;;26.60;17.40;;;2.70;99.90;;;;;;5058236;28;20229;-85
2022/12/05 00:10:35;;;;;;;29.83;18.13;;;2.80;99.90;;;;;;5039901;28;20723;-85
2022/12/05 00:13:01;;;;;;;33.28;19.85;;;2.70;99.90;;;;;;5040285;28;20212;-85
2022/12/05 00:15:27;;;;;;;29.50;18.70;;;2.60;99.90;;;;;;5040057;28;20216;-85
2022/12/05 00:17:52;;;;;;;27.87;17.50;;;2.60;99.90;;;;;;5023837;28;20408;-85
2022/12/05 00:20:18;;;;;;;34.70;18.70;;;2.60;99.90;;;;;;5023698;28;20518;-85
2022/12/05 00:22:43;;;;;;;32.23;18.87;;;2.70;99.90;;;;;;5040251;28;20196;-85
2022/12/05 00:25:09;;;;;;;33.00;18.87;;;2.70;99.90;;;;;;5039807;28;20173;-86
2022/12/05 00:27:35;;;;;;;37.67;20.07;;;2.70;99.90;;;;;;5039606;28;20232;-85
2022/12/05 00:30:01;;;;;;;32.17;18.13;;;2.70;99.90;;;;;;5057987;28;20209;-85
2022/12/05 00:32:30;;;;;;;34.90;20.83;;;2.70;99.90;;;;;;5057707;28;20185;-85
2022/12/05 00:34:55;;;;;;;33.15;19.20;;;2.70;99.90;;;;;;5039810;28;20440;-85
2022/12/05 00:37:21;;;;;;;33.77;18.33;;;2.70;99.90;;;;;;5057778;28;20639;-85
2022/12/05 00:39:47;;;;;;;27.43;17.10;;;2.70;99.90;;;;;;5039589;28;20780;-85
2022/12/05 00:42:13;;;;;;;33.87;20.57;;;2.70;99.90;;;;;;5057247;28;20419;-85
2022/12/05 00:44:38;;;;;;;32.23;19.53;;;2.70;99.90;;;;;;5022936;28;20185;-86
2022/12/05 00:47:04;;;;;;;29.07;17.83;;;2.60;99.90;;;;;;5039884;28;20282;-85
2022/12/05 00:49:29;;;;;;;34.33;18.50;;;2.60;99.90;;;;;;5022733;28;20629;-85
2022/12/05 00:51:55;;;;;;;27.67;16.80;;;2.70;99.90;;;;;;5039559;28;20633;-84
2022/12/05 00:54:21;;;;;;;25.27;17.00;;;2.70;99.90;;;;;;5039093;28;20197;-85
2022/12/05 00:56:46;;;;;;;34.17;17.93;;;2.80;99.90;;;;;;5057163;28;20195;-85
2022/12/05 00:59:16;;;;;;;24.70;16.90;;;2.70;99.90;;;;;;5039457;28;20594;-85
2022/12/05 01:01:43;;;;;;;28.58;18.98;;;2.70;99.90;;;;;;5056928;28;20177;-85
2022/12/05 01:04:28;;;;;;;28.35;17.52;;;2.70;99.90;;;;;;5057151;28;20180;-85
2022/12/05 01:06:56;;;;;;;32.63;18.73;;;2.70;99.90;;;;;;5039138;28;20243;-84
2022/12/05 01:09:23;;;;;;;29.48;18.85;;;2.70;99.90;;;;;;5022426;28;20188;-85
2022/12/05 01:11:49;;;;;;;32.55;19.75;;;2.60;99.90;;;;;;5039073;28;20181;-85
2022/12/05 01:14:16;;;;;;;37.50;19.13;;;2.70;99.90;;;;;;5039281;28;20178;-84
2022/12/05 01:16:45;;;;;;;27.05;16.75;;;2.70;99.90;;;;;;5039036;28;20940;-84
2022/12/05 01:19:13;;;;;;;33.05;18.60;;;2.70;99.90;;;;;;5056781;28;20622;-84
2022/12/05 01:21:39;;;;;;;33.00;18.67;;;2.60;99.90;;;;;;5039174;28;20182;-84
2022/12/05 01:24:05;;;;;;;37.78;20.67;;;2.50;99.90;;;;;;5039040;28;20220;-85
2022/12/05 01:26:31;;;;;;;33.00;19.00;;;2.60;99.90;;;;;;5056816;28;20201;-84
2022/12/05 01:28:56;;;;;;;28.20;18.17;;;2.60;99.90;;;;;;5038851;28;20424;-84
2022/12/05 01:31:23;;;;;;;27.57;18.13;;;2.50;99.90;;;;;;5021955;28;20256;-85
2022/12/05 01:33:49;;;;;;;30.30;18.73;;;2.50;99.90;;;;;;5056616;28;20212;-84
2022/12/05 01:36:16;;;;;;;34.45;20.02;;;2.40;99.90;;;;;;5038569;28;20577;-84
2022/12/05 01:38:42;;;;;;;37.78;22.45;;;2.50;99.90;;;;;;5056318;28;20203;-85
2022/12/05 01:41:11;;;;;;;39.33;20.70;;;2.50;99.90;;;;;;5038898;28;20184;-84
2022/12/05 01:43:53;;;;;;;29.63;18.80;;;2.50;99.90;;;;;;5038690;28;20657;-85
2022/12/05 01:46:19;;;;;;;31.10;18.58;;;2.50;99.90;;;;;;5038709;28;20351;-85
2022/12/05 01:48:44;;;;;;;31.00;17.40;;;2.50;99.90;;;;;;5056935;28;20649;-85
2022/12/05 01:51:10;;;;;;;24.50;15.67;;;2.50;99.90;;;;;;5038908;28;20181;-85
2022/12/05 01:53:36;;;;;;;26.80;18.23;;;2.50;99.90;;;;;;5056385;28;20267;-86
2022/12/05 01:56:02;;;;;;;30.33;18.63;;;2.50;99.90;;;;;;5021704;28;20428;-84
2022/12/05 01:58:34;;;;;;;30.85;17.95;;;2.60;99.90;;;;;;5055316;28;20614;-85
2022/12/05 02:01:00;;;;;;;29.92;17.52;;;2.50;99.90;;;;;;5058206;28;20165;-84
2022/12/05 02:03:26;;;;;;;26.52;17.80;;;2.60;99.90;;;;;;5021817;28;20181;-85
2022/12/05 02:05:55;;;;;;;28.73;16.50;;;2.50;99.90;;;;;;5056043;28;20531;-84
2022/12/05 02:08:21;;;;;;;28.67;16.98;;;2.50;99.90;;;;;;5055460;28;20460;-87
2022/12/05 02:10:50;;;;;;;29.43;16.87;;;2.50;99.90;;;;;;5037279;28;20278;-85
2022/12/05 02:13:41;;;;;;;27.33;16.73;;;2.60;99.90;;;;;;5054819;28;20408;-84
2022/12/05 02:16:27;;;;;;;30.15;16.52;;;2.60;99.90;;;;;;5055092;28;20177;-85
2022/12/05 02:19:31;;;;;;;26.40;18.00;;;2.60;99.90;;;;;;5037026;28;20179;-85
2022/12/05 02:22:06;;;;;;;33.78;17.90;;;2.50;99.90;;;;;;5037331;28;20185;-84
2022/12/05 02:24:56;;;;;;;26.85;17.33;;;2.50;99.90;;;;;;5037219;28;20180;-85
2022/12/05 02:27:40;;;;;;;28.88;17.65;;;2.50;99.90;;;;;;5054248;28;20544;-86
2022/12/05 02:30:10;;;;;;;28.13;16.92;;;2.50;99.90;;;;;;5055173;28;20184;-86
2022/12/05 02:33:01;;;;;;;31.05;18.08;;;2.50;99.90;;;;;;5054848;28;20265;-85
2022/12/05 02:35:43;;;;;;;28.98;16.65;;;2.60;99.90;;;;;;5055083;28;20169;-84
2022/12/05 02:38:09;;;;;;;29.48;16.25;;;2.60;99.90;;;;;;5055333;28;20176;-84
2022/12/05 02:41:00;;;;;;;31.80;19.03;;;2.60;99.90;;;;;;5054737;28;20189;-84
2022/12/05 02:43:40;;;;;;;26.38;16.45;;;2.50;99.90;;;;;;5026154;28;20224;-85
2022/12/05 02:46:15;;;;;;;27.38;15.73;;;2.50;99.90;;;;;;5016989;28;20525;-85
2022/12/05 02:48:44;;;;;;;31.85;18.25;;;2.50;99.90;;;;;;5034437;28;20744;-84
2022/12/05 02:51:13;;;;;;;25.75;15.73;;;2.60;99.90;;;;;;5034593;28;20626;-85
2022/12/05 02:53:42;;;;;;;28.80;16.60;;;2.50;99.90;;;;;;5046536;28;20191;-85
2022/12/05 02:56:08;;;;;;;23.48;15.68;;;2.50;99.90;;;;;;5054475;28;20183;-85
2022/12/05 02:58:47;;;;;;;25.65;15.05;;;2.40;99.90;;;;;;5054291;28;20185;-85
2022/12/05 03:01:13;;;;;;;29.77;17.77;;;2.50;99.90;;;;;;5054466;28;20198;-85
2022/12/05 03:03:39;;;;;;;27.35;17.27;;;2.30;99.90;;;;;;5036142;28;20272;-85
2022/12/05 03:06:19;;;;;;;33.30;17.30;;;2.20;99.90;;;;;;5055030;28;20281;-85
2022/12/05 03:08:52;;;;;;;23.83;14.03;;;2.20;99.90;;;;;;5017981;28;1070175;-85
2022/12/05 03:11:18;;;;;;;27.45;15.95;;;2.10;99.90;;;;;;5037773;28;20181;-86
2022/12/05 03:13:48;;;;;;;30.00;17.43;;;2.10;99.90;;;;;;5037175;28;20199;-87
2022/12/05 03:16:37;;;;;;;29.40;15.75;;;2.00;99.90;;;;;;5054908;28;20203;-86
2022/12/05 03:19:11;;;;;;;27.23;16.67;;;2.00;99.90;;;;;;5037031;28;20188;-86
2022/12/05 03:21:44;;;;;;;24.15;16.10;;;2.00;99.90;;;;;;5054958;28;20245;-86
2022/12/05 03:24:13;;;;;;;29.92;15.95;;;1.90;99.90;;;;;;5054574;28;20169;-87
2022/12/05 03:27:02;;;;;;;23.50;15.70;;;1.90;99.90;;;;;;5054192;28;20214;-86
2022/12/05 03:29:35;;;;;;;27.63;16.08;;;1.80;99.90;;;;;;5053166;28;20243;-87
2022/12/05 03:32:08;;;;;;;26.90;15.48;;;1.80;99.90;;;;;;5055185;28;20284;-86
2022/12/05 03:34:44;;;;;;;29.73;15.73;;;1.70;99.90;;;;;;5054318;28;20199;-86
2022/12/05 03:37:19;;;;;;;26.38;15.50;;;1.60;99.90;;;;;;5054227;28;20176;-85
2022/12/05 03:39:52;;;;;;;28.30;16.05;;;1.50;99.90;;;;;;5053549;28;20186;-87
2022/12/05 03:42:27;;;;;;;26.15;15.10;;;1.50;99.90;;;;;;5054705;28;20185;-87
2022/12/05 03:44:59;;;;;;;26.15;17.00;;;1.30;99.90;;;;;;5054437;28;20175;-86
2022/12/05 03:47:37;;;;;;;21.23;14.35;;;1.20;99.90;;;;;;5054094;28;20296;-87
2022/12/05 03:50:11;;;;;;;29.38;17.02;;;1.20;99.90;;;;;;5054361;28;20192;-87
2022/12/05 03:52:47;;;;;;;30.40;15.70;;;1.20;99.90;;;;;;5054338;28;20161;-87
2022/12/05 03:55:14;;;;;;;27.25;15.52;;;1.20;99.90;;;;;;5054368;28;20173;-86
2022/12/05 03:57:48;;;;;;;30.83;17.17;;;1.20;99.90;;;;;;5019722;28;20214;-86
2022/12/05 04:00:17;;;;;;;30.00;15.20;;;1.10;99.90;;;;;;5036754;28;20273;-87
2022/12/05 04:02:59;;;;;;;29.85;16.10;;;1.10;99.90;;;;;;5054284;28;20243;-87
2022/12/05 04:05:45;;;;;;;28.35;16.80;;;1.20;99.90;;;;;;5054303;28;20168;-86
2022/12/05 04:08:29;;;;;;;28.73;15.32;;;1.00;99.90;;;;;;5035981;28;20685;-86
2022/12/05 04:10:59;;;;;;;29.00;15.63;;;1.00;99.90;;;;;;5034693;28;20178;-85
2022/12/05 04:13:34;;;;;;;26.25;16.40;;;1.00;99.90;;;;;;5016724;28;20185;-85
2022/12/05 04:18:58;;;;;;;28.17;16.38;;;0.90;99.90;;;;;;5034248;28;20164;-85
2022/12/05 04:21:38;;;;;;;25.48;14.27;;;0.90;99.90;;;;;;5017073;28;20586;-85
2022/12/05 04:27:16;;;;;;;28.13;15.27;;;0.80;99.90;;;;;;5034303;28;20214;-86
2022/12/05 04:29:53;;;;;;;29.63;14.80;;;0.90;99.90;;;;;;5034410;28;20213;-86
2022/12/05 04:32:24;;;;;;;27.52;15.63;;;0.90;99.90;;;;;;5033938;28;20166;-86
2022/12/05 04:34:57;;;;;;;29.75;16.75;;;0.90;99.90;;;;;;5033495;28;20186;-86
2022/12/05 04:37:25;;;;;;;29.60;15.95;;;0.90;99.90;;;;;;5034122;28;20225;-86
2022/12/05 04:39:57;;;;;;;29.00;15.75;;;0.90;99.90;;;;;;5033870;28;20698;-86
2022/12/05 04:42:26;;;;;;;29.00;15.60;;;0.90;99.90;;;;;;5034095;28;20621;-87
2022/12/05 04:44:56;;;;;;;25.38;13.27;;;0.90;99.90;;;;;;5042485;28;20180;-87
2022/12/05 04:47:27;;;;;;;27.80;14.70;;;0.90;99.90;;;;;;5036080;28;20218;-86
2022/12/05 04:49:54;;;;;;;30.50;16.98;;;0.90;99.90;;;;;;5053929;28;20172;-86
2022/12/05 04:52:21;;;;;;;27.40;17.10;;;0.90;99.90;;;;;;5039328;28;20511;-86
2022/12/05 04:54:58;;;;;;;28.23;16.95;;;0.90;99.90;;;;;;5022073;28;20195;-87
2022/12/05 04:57:26;;;;;;;32.53;16.13;;;0.90;99.90;;;;;;5057066;28;20701;-86
2022/12/05 04:59:52;;;;;;;27.58;15.73;;;0.90;99.90;;;;;;5056916;28;20180;-86
2022/12/05 05:02:32;;;;;;;25.77;15.68;;;0.90;99.90;;;;;;5023037;28;20266;-86
2022/12/05 05:05:00;;;;;;;29.48;17.67;;;0.90;99.90;;;;;;5057222;28;20239;-86
2022/12/05 05:07:26;;;;;;;29.85;16.13;;;0.80;99.90;;;;;;5057189;28;20581;-86
2022/12/05 05:09:51;;;;;;;26.27;15.50;;;0.80;99.90;;;;;;5039465;28;20176;-85
2022/12/05 05:12:17;;;;;;;25.77;17.00;;;0.80;99.90;;;;;;5039642;28;20253;-85
2022/12/05 05:14:43;;;;;;;33.60;16.30;;;0.80;99.90;;;;;;5038998;28;20275;-86
2022/12/05 05:17:09;;;;;;;23.77;14.97;;;0.90;99.90;;;;;;5039511;28;20652;-86
2022/12/05 05:19:34;;;;;;;24.20;15.57;;;0.80;99.90;;;;;;5056618;28;20227;-86
2022/12/05 05:22:00;;;;;;;24.60;15.37;;;0.90;99.90;;;;;;5022466;28;20182;-85
2022/12/05 05:24:25;;;;;;;25.40;14.73;;;0.90;99.90;;;;;;5039300;28;20228;-85
2022/12/05 05:26:52;;;;;;;21.27;13.57;;;0.80;99.90;;;;;;5039125;28;20208;-85
2022/12/05 05:29:17;;;;;;;27.88;15.90;;;0.80;99.90;;;;;;5057268;28;20189;-85
2022/12/05 05:31:44;;;;;;;33.33;15.90;;;0.70;99.90;;;;;;5056754;28;20193;-86
2022/12/05 05:34:11;;;;;;;23.60;15.23;;;0.80;99.90;;;;;;5056766;28;20548;-86
2022/12/05 05:36:37;;;;;;;25.85;15.68;;;0.80;99.90;;;;;;5038645;28;20195;-86
2022/12/05 05:39:04;;;;;;;23.05;15.65;;;0.80;99.90;;;;;;5039098;28;20181;-86
2022/12/05 05:41:32;;;;;;;25.30;15.07;;;0.80;99.90;;;;;;5022820;28;20175;-86
2022/12/05 05:43:58;;;;;;;24.70;15.02;;;0.80;99.90;;;;;;5038463;28;20183;-85
2022/12/05 05:46:27;;;;;;;27.00;14.68;;;0.80;99.90;;;;;;5018902;28;20212;-86
2022/12/05 05:48:52;;;;;;;22.88;13.95;;;0.80;99.90;;;;;;5036386;28;20190;-87
2022/12/05 05:51:19;;;;;;;24.00;16.10;;;0.70;99.90;;;;;;5036775;28;20184;-87
2022/12/05 05:53:45;;;;;;;25.52;15.20;;;0.70;99.90;;;;;;5036295;28;20204;-87
2022/12/05 05:56:14;;;;;;;27.58;15.05;;;0.70;99.90;;;;;;5018864;28;20190;-87
2022/12/05 05:58:40;;;;;;;24.00;14.65;;;0.70;99.90;;;;;;5036512;28;20200;-87
2022/12/05 06:01:19;;;;;;;20.90;14.10;;;0.70;99.90;;;;;;5002161;28;20181;-86
2022/12/05 06:03:44;;;;;;;22.92;14.65;;;0.70;99.90;;;;;;5017488;28;20211;-87
2022/12/05 06:06:12;;;;;;;22.87;14.27;;;0.70;99.90;;;;;;5034028;28;20238;-86
2022/12/05 06:08:41;;;;;;;22.73;14.82;;;0.70;99.90;;;;;;5037731;28;20237;-86
2022/12/05 06:11:12;;;;;;;23.95;15.27;;;0.80;99.90;;;;;;5055728;28;20633;-86
2022/12/05 06:13:38;;;;;;;26.23;15.20;;;0.80;99.90;;;;;;5038910;28;20170;-86
2022/12/05 06:16:07;;;;;;;24.65;15.40;;;0.70;99.90;;;;;;5037960;28;20184;-87
2022/12/05 06:18:33;;;;;;;23.58;14.20;;;0.70;99.90;;;;;;5038079;28;20188;-86
2022/12/05 06:20:58;;;;;;;23.20;14.40;;;0.70;99.90;;;;;;5037554;28;20236;-86
2022/12/05 06:23:25;;;;;;;22.50;13.70;;;0.80;99.90;;;;;;5055706;28;20413;-86
2022/12/05 06:25:53;;;;;;;22.55;13.95;;;0.80;99.90;;;;;;5055430;28;20200;-85
2022/12/05 06:28:20;;;;;;;22.88;14.18;;;0.80;99.90;;;;;;5038089;28;20201;-85
2022/12/05 06:30:46;;;;;;;20.10;13.88;;;0.70;99.90;;;;;;5004864;28;20189;-85
2022/12/05 06:33:12;;;;;;;21.15;14.65;;;0.70;99.90;;;;;;5038016;28;20315;-86
2022/12/05 06:35:38;;;;;;;26.92;15.27;;;0.70;99.90;;;;;;5055479;28;20180;-85
2022/12/05 06:38:05;;;;;;;18.37;12.97;;;0.80;99.90;;;;;;5055573;28;20523;-85
2022/12/05 06:40:31;;;;;;;21.75;13.50;;;0.70;99.90;;;;;;5055430;28;20477;-86
2022/12/05 06:42:57;;;;;;;23.42;16.17;;;0.70;99.90;;;;;;5055150;28;20184;-86
2022/12/05 06:45:23;;;;;;;23.60;14.63;;;0.70;99.90;;;;;;5055415;28;20207;-85
2022/12/05 06:47:50;;;;;;;26.27;15.40;;;0.80;99.90;;;;;;5055125;28;20213;-85
2022/12/05 06:50:15;;;;;;;24.08;15.95;;;0.70;99.90;;;;;;5021252;28;20183;-86
2022/12/05 06:52:41;;;;;;;23.70;14.93;;;0.70;99.90;;;;;;5004406;28;20191;-86
2022/12/05 06:55:07;;;;;;;24.20;14.50;;;0.80;99.90;;;;;;5037284;28;20426;-86
2022/12/05 06:57:33;;;;;;;26.70;15.53;;;0.70;99.90;;;;;;5037389;28;20188;-86
2022/12/05 07:02:59;;;;;;;32.22;15.23;;;0.70;99.90;;;;;;5032801;28;20204;-86
2022/12/05 07:05:25;;;;;;;21.70;15.90;;;0.70;99.90;;;;;;5032909;28;20193;-86
2022/12/05 07:07:50;;;;;;;22.40;14.30;;;0.70;99.90;;;;;;5054606;28;20231;-86
2022/12/05 07:10:16;;;;;;;20.40;14.90;;;0.70;99.90;;;;;;5054786;28;20614;-86
2022/12/05 07:12:41;;;;;;;23.73;14.70;;;0.70;99.90;;;;;;5054568;28;20206;-86
2022/12/05 07:15:07;;;;;;;24.00;14.40;;;0.70;99.90;;;;;;5036695;28;20185;-86
2022/12/05 07:17:37;;;;;;;26.93;14.00;;;0.80;99.90;;;;;;5054854;28;20182;-85
2022/12/05 07:20:04;;;;;;;22.30;14.27;;;0.80;99.90;;;;;;5036718;28;20906;-86
2022/12/05 07:22:30;;;;;;;23.58;16.05;;;0.70;99.90;;;;;;5055000;28;20223;-86
2022/12/05 07:24:55;;;;;;;28.30;17.10;;;0.70;99.90;;;;;;5020372;28;20192;-87
2022/12/05 07:27:22;;;;;;;21.97;14.50;;;0.70;99.90;;;;;;5036556;28;20209;-86
2022/12/05 07:29:47;;;;;;;34.05;15.77;;;0.70;99.90;;;;;;5036718;28;20606;-87
2022/12/05 07:32:13;;;;;;;34.33;20.80;;;0.70;99.90;;;;;;5054459;28;20309;-86
2022/12/05 07:34:38;;;;;;;26.37;15.47;;;0.70;99.90;;;;;;5036825;28;20183;-87
2022/12/05 07:37:04;;;;;;;23.70;15.30;;;0.70;99.90;;;;;;5052970;28;20196;-87
2022/12/05 07:39:30;;;;;;;33.80;17.00;;;0.80;99.90;;;;;;5020495;28;20187;-85
2022/12/05 07:41:55;;;;;;;27.37;18.20;;;0.80;99.90;;;;;;5017143;28;20261;-86
2022/12/05 07:44:21;;;;;;;23.60;16.07;;;0.80;99.90;;;;;;5034505;28;20234;-85
2022/12/05 07:46:47;;;;;;;26.57;14.57;;;0.80;99.90;;;;;;5017117;28;20616;-85
2022/12/05 07:49:14;;;;;;;27.90;16.97;;;0.80;99.90;;;;;;5017262;28;20184;-85
2022/12/05 07:51:40;;;;;;;23.85;16.05;;;0.90;99.90;;;;;;5000765;28;20183;-85
2022/12/05 07:54:06;;;;;;;23.00;15.40;;;0.80;99.90;;;;;;5016252;28;20586;-86
2022/12/05 07:56:31;;;;;;;27.27;16.27;;;0.80;99.90;;;;;;5019808;28;20188;-86
2022/12/05 07:58:57;;;;;;;25.03;16.80;;;0.70;99.90;;;;;;5000925;28;20475;-87
2022/12/05 08:01:25;;;;;;;32.20;16.65;;;0.80;99.90;;;;;;4984855;28;20540;-87
2022/12/05 08:03:53;;;;;;;27.50;16.70;;;0.90;99.90;;;;;;5034873;28;20172;-86
2022/12/05 08:06:22;;;;;;;25.13;15.98;;;1.00;99.90;;;;;;5016908;28;20259;-87
2022/12/05 08:08:48;;;;;;;26.85;16.60;;;1.00;99.90;;;;;;5034042;28;20193;-86
2022/12/05 08:11:26;;;;;;;24.67;14.88;;;0.90;99.90;;;;;;5000223;28;20197;-86
2022/12/05 08:13:53;;;;;;;23.98;15.20;;;0.90;99.90;;;;;;5034906;28;20172;-87
2022/12/05 08:16:22;;;;;;;26.45;17.17;;;0.80;99.90;;;;;;5034826;28;20244;-87
2022/12/05 08:18:47;;;;;;;23.83;15.43;;;0.80;99.90;;;;;;5048823;28;20183;-87
2022/12/05 08:21:18;;;;;;;23.80;15.53;;;0.90;99.90;;;;;;5036913;28;20372;-88
2022/12/05 08:23:44;;;;;;;26.63;15.23;;;1.00;99.90;;;;;;5053999;28;20430;-87
2022/12/05 08:26:17;;;;;;;25.17;15.43;;;0.90;99.90;;;;;;5055910;28;20203;-87
2022/12/05 08:28:43;;;;;;;33.22;15.35;;;0.90;99.90;;;;;;5058891;28;20239;-88
2022/12/05 08:31:14;;;;;;;25.27;15.55;;;1.00;99.90;;;;;;5058041;28;20207;-87
2022/12/05 08:33:40;;;;;;;26.30;15.80;;;1.00;99.90;;;;;;5027072;28;20184;-87
2022/12/05 08:36:09;;;;;;;27.38;15.98;;;0.80;99.90;;;;;;5040197;28;20208;-87
2022/12/05 08:38:35;;;;;;;27.48;15.70;;;0.80;99.90;;;;;;5041513;28;20227;-87
2022/12/05 08:41:02;;;;;;;27.80;16.13;;;0.80;99.90;;;;;;5025344;28;20554;-87
2022/12/05 08:43:28;;;;;;;28.75;17.73;;;0.90;99.90;;;;;;5020370;28;20184;-87
2022/12/05 08:45:54;;;;;;;31.05;16.27;;;0.90;99.90;;;;;;5037723;28;20179;-86
2022/12/05 08:48:20;;;;;;;26.60;15.10;;;0.90;99.90;;;;;;5038628;28;20260;-86
2022/12/05 08:50:46;;;;;;;36.78;16.95;;;0.90;99.90;;;;;;5003264;28;20546;-83
2022/12/05 08:53:12;;;;;;;25.17;15.57;;;1.00;99.90;;;;;;5037266;28;20267;-84
2022/12/05 08:55:38;;;;;;;21.73;14.60;;;0.90;99.90;;;;;;5019323;28;20517;-84
2022/12/05 08:58:04;;;;;;;25.00;16.80;;;0.90;99.90;;;;;;5019307;28;20433;-83
2022/12/05 09:00:30;;;;;;;23.80;14.73;;;0.90;99.90;;;;;;5037428;28;20173;-84
2022/12/05 09:02:56;;;;;;;27.65;16.08;;;1.00;99.90;;;;;;5019524;28;20423;-84
2022/12/05 09:05:22;;;;;;;28.20;16.00;;;1.10;99.90;;;;;;5019187;28;20185;-83
2022/12/05 09:07:48;;;;;;;24.63;16.27;;;1.00;99.90;;;;;;5037059;28;20227;-84
2022/12/05 09:10:14;;;;;;;30.77;17.93;;;1.10;99.90;;;;;;5037439;28;20298;-84
2022/12/05 09:12:39;;;;;;;33.93;23.37;;;1.00;99.90;;;;;;5022843;28;20190;-84
2022/12/05 09:15:06;;;;;;;32.10;20.53;;;0.90;99.90;;;;;;5056781;28;20640;-86
2022/12/05 09:17:32;;;;;;;34.35;22.67;;;0.80;99.90;;;;;;5023016;28;20211;-85
2022/12/05 09:19:58;;;;;;;27.20;16.75;;;0.90;99.90;;;;;;5056333;28;20185;-85
2022/12/05 09:22:23;;;;;;;27.57;17.40;;;0.80;99.90;;;;;;5039351;28;20619;-85
2022/12/05 09:24:49;;;;;;;24.03;15.73;;;1.00;99.90;;;;;;5056556;28;20206;-85
2022/12/05 09:27:15;;;;;;;29.73;15.67;;;0.90;99.90;;;;;;5056713;28;20211;-85
2022/12/05 09:29:41;;;;;;;28.80;16.67;;;0.90;99.90;;;;;;5022409;28;20424;-86
2022/12/05 09:32:07;;;;;;;25.98;15.50;;;0.90;99.90;;;;;;5036073;28;20434;-86
2022/12/05 09:34:33;;;;;;;24.65;16.10;;;0.90;99.90;;;;;;5051097;28;20296;-85
2022/12/05 09:37:00;;;;;;;24.50;16.00;;;1.00;99.90;;;;;;5049281;28;20733;-86
2022/12/05 09:39:26;;;;;;;23.75;15.52;;;1.00;99.90;;;;;;5033806;28;20464;-85
2022/12/05 09:42:29;;;;;;;30.00;16.95;;;1.10;99.90;;;;;;5053504;28;20204;-85
2022/12/05 09:45:03;;;;;;;25.60;17.10;;;1.30;99.90;;;;;;5051123;28;20180;-86
2022/12/05 09:47:52;;;;;;;29.65;15.57;;;1.30;99.90;;;;;;5054884;28;20227;-85
2022/12/05 09:50:21;;;;;;;26.83;15.05;;;1.10;99.90;;;;;;5056250;28;20677;-85
2022/12/05 09:53:16;;;;;;;24.10;15.35;;;1.10;99.90;;;;;;5038665;28;20192;-85
2022/12/05 09:55:52;;;;;;;23.13;16.38;;;1.10;99.90;;;;;;5056416;28;20176;-84
2022/12/05 09:58:42;;;;;;;23.67;16.25;;;1.10;99.90;;;;;;5038108;28;20189;-84
2022/12/05 10:01:44;;;;;;;23.10;15.07;;;1.00;99.90;;;;;;5055846;28;20266;-84
2022/12/05 10:04:47;;;;;;;31.42;16.60;;;1.00;99.90;;;;;;5038327;28;20568;-84
2022/12/05 10:07:24;;;;;;;23.75;15.25;;;1.10;99.90;;;;;;5020970;28;20330;-83
2022/12/05 10:10:09;;;;;;;25.40;16.27;;;1.20;99.90;;;;;;5035986;28;20159;-84
2022/12/05 10:12:34;;;;;;;22.70;16.30;;;1.10;99.90;;;;;;5018431;28;20185;-83
2022/12/05 10:15:27;;;;;;;23.30;15.23;;;1.10;99.90;;;;;;5018462;28;20628;-83
2022/12/05 10:18:00;;;;;;;25.75;15.02;;;1.20;99.90;;;;;;5035917;28;20171;-84
2022/12/05 10:20:43;;;;;;;25.40;16.15;;;1.20;99.90;;;;;;5035750;28;20289;-82
2022/12/05 10:23:21;;;;;;;22.92;16.48;;;1.30;99.90;;;;;;5017636;28;20181;-83
2022/12/05 10:25:53;;;;;;;24.77;17.23;;;1.40;99.90;;;;;;5035816;28;20168;-83
2022/12/05 10:28:58;;;;;;;26.33;15.88;;;1.30;99.90;;;;;;5017901;28;20192;-82
2022/12/05 10:31:31;;;;;;;30.98;18.02;;;1.30;99.90;;;;;;5024828;28;20533;-84
2022/12/05 10:34:03;;;;;;;26.60;17.00;;;1.30;99.90;;;;;;5017819;28;20242;-82
2022/12/05 10:36:29;;;;;;;26.95;17.75;;;1.30;99.90;;;;;;5035439;28;20178;-82
2022/12/05 10:38:56;;;;;;;27.65;17.35;;;1.30;99.90;;;;;;5035369;28;20181;-82
2022/12/05 10:41:22;;;;;;;28.95;17.02;;;1.30;99.90;;;;;;5017942;28;20722;-82
2022/12/05 10:43:48;;;;;;;27.98;17.58;;;1.30;99.90;;;;;;5017710;28;20188;-82
2022/12/05 10:46:15;;;;;;;32.47;19.73;;;1.30;99.90;;;;;;5035808;28;20644;-82
2022/12/05 10:48:42;;;;;;;30.67;18.15;;;1.40;99.90;;;;;;5035147;28;20534;-82
2022/12/05 10:51:14;;;;;;;30.77;19.33;;;1.30;99.90;;;;;;5017187;28;20236;-82
2022/12/05 10:53:49;;;;;;;29.27;18.45;;;1.30;99.90;;;;;;5017557;28;20188;-82
2022/12/05 10:56:35;;;;;;;28.70;17.38;;;1.50;99.90;;;;;;5017327;28;20315;-82
2022/12/05 10:59:00;;;;;;;30.90;18.95;;;1.40;99.90;;;;;;5017302;28;20189;-82
2022/12/05 11:01:26;;;;;;;29.77;18.53;;;1.30;99.90;;;;;;5017569;28;20186;-82
2022/12/05 11:03:57;;;;;;;29.80;19.27;;;1.30;99.90;;;;;;5017448;28;20189;-82
2022/12/05 11:06:29;;;;;;;27.95;16.80;;;1.40;99.90;;;;;;5034844;28;20218;-83
2022/12/05 11:09:02;;;;;;;28.67;17.77;;;1.40;99.90;;;;;;5017090;28;20181;-82
2022/12/05 11:11:31;;;;;;;27.33;17.02;;;1.40;99.90;;;;;;5035153;28;20162;-82
2022/12/05 11:14:00;;;;;;;27.38;17.73;;;1.30;99.90;;;;;;5017390;28;20181;-82
2022/12/05 11:16:32;;;;;;;24.92;16.77;;;1.40;99.90;;;;;;5017251;28;20242;-82
2022/12/05 11:19:20;;;;;;;21.45;16.20;;;1.40;99.90;;;;;;5017576;28;20529;-82
2022/12/05 11:21:45;;;;;;;24.23;17.42;;;1.30;99.90;;;;;;5034639;28;20541;-83
2022/12/05 11:24:33;;;;;;;21.97;15.20;;;1.30;99.90;;;;;;5034673;28;20189;-83
2022/12/05 11:27:24;;;;;;;26.23;17.85;;;1.30;99.90;;;;;;5034482;28;20205;-84
2022/12/05 11:30:11;;;;;;;20.33;15.15;;;1.40;99.90;;;;;;5034544;28;20276;-83
2022/12/05 11:32:36;;;;;;;22.58;16.77;;;1.40;99.90;;;;;;5016833;28;20656;-83
2022/12/05 11:35:21;;;;;;;22.07;16.00;;;1.40;99.90;;;;;;5033336;28;20181;-83
2022/12/05 11:37:55;;;;;;;27.33;18.30;;;1.50;99.90;;;;;;5017067;28;20235;-82
2022/12/05 11:40:28;;;;;;;22.65;15.40;;;1.40;99.90;;;;;;5016836;28;20180;-83
2022/12/05 11:43:18;;;;;;;29.50;17.77;;;1.40;99.90;;;;;;5016831;28;20227;-81
2022/12/05 11:46:02;;;;;;;28.05;15.80;;;1.40;99.90;;;;;;5016968;28;20185;-81
2022/12/05 11:48:40;;;;;;;22.40;15.23;;;1.40;99.90;;;;;;5017004;28;20216;-81
2022/12/05 11:51:41;;;;;;;24.05;16.92;;;1.40;99.90;;;;;;5034673;28;20618;-82
2022/12/05 11:54:07;;;;;;;28.85;17.33;;;1.50;99.90;;;;;;5034406;28;20616;-81
2022/12/05 11:56:51;;;;;;;24.00;14.53;;;1.40;99.90;;;;;;5016900;28;20234;-82
2022/12/05 11:59:47;;;;;;;24.52;17.27;;;1.40;99.90;;;;;;5016402;28;20241;-81
2022/12/05 12:02:31;;;;;;;25.77;17.27;;;1.40;99.90;;;;;;5019945;28;20668;-81
2022/12/05 12:05:16;;;;;;;26.05;16.88;;;1.40;99.90;;;;;;5038545;28;20485;-82
2022/12/05 12:08:07;;;;;;;32.40;18.27;;;1.40;99.90;;;;;;5020335;28;20244;-81
2022/12/05 12:10:53;;;;;;;26.45;17.60;;;1.40;99.90;;;;;;5021175;28;20217;-80
2022/12/05 12:13:37;;;;;;;27.75;18.13;;;1.50;99.90;;;;;;5020686;28;20644;-82
2022/12/05 12:16:24;;;;;;;27.15;17.35;;;1.50;99.90;;;;;;5020569;28;20191;-82
2022/12/05 12:19:14;;;;;;;27.17;17.15;;;1.40;99.90;;;;;;5038254;28;20171;-82
2022/12/05 12:22:17;;;;;;;27.83;18.02;;;1.40;99.90;;;;;;5038082;28;20182;-82
2022/12/05 12:24:48;;;;;;;30.08;18.52;;;1.50;99.90;;;;;;5020404;28;20306;-82
2022/12/05 12:27:36;;;;;;;30.15;18.38;;;1.50;99.90;;;;;;5038114;28;20600;-82
2022/12/05 12:30:19;;;;;;;28.25;18.05;;;1.60;99.90;;;;;;5038366;28;20185;-82
2022/12/05 12:32:56;;;;;;;25.88;17.50;;;1.60;99.90;;;;;;5038155;28;20200;-82
2022/12/05 12:35:26;;;;;;;28.88;17.88;;;1.80;99.90;;;;;;5038134;28;20249;-83
2022/12/05 12:38:04;;;;;;;22.42;15.73;;;1.70;99.90;;;;;;5020558;28;20181;-82
2022/12/05 12:40:43;;;;;;;33.00;18.92;;;1.70;99.90;;;;;;5038278;28;20173;-82
2022/12/05 12:43:31;;;;;;;29.10;18.98;;;1.70;99.90;;;;;;5038285;28;20215;-83
2022/12/05 12:46:35;;;;;;;20.92;14.98;;;1.60;99.90;;;;;;5037827;28;20164;-82
2022/12/05 12:49:23;;;;;;;19.67;13.15;;;1.70;99.90;;;;;;4976463;28;20209;-82
2022/12/05 12:52:03;;;;;;;17.33;14.20;;;1.70;99.90;;;;;;4960707;28;20190;-82
2022/12/05 12:54:40;;;;;;;25.05;16.38;;;1.90;99.90;;;;;;5019943;28;20192;-82
2022/12/05 12:57:19;;;;;;;26.25;14.90;;;1.90;99.90;;;;;;5037903;28;20638;-82
2022/12/05 12:59:56;;;;;;;21.02;14.45;;;1.80;99.90;;;;;;5038241;28;20196;-81
2022/12/05 13:02:39;;;;;;;21.33;15.10;;;1.80;99.90;;;;;;5020035;28;20185;-82
2022/12/05 13:05:20;;;;;;;23.98;16.48;;;1.90;99.90;;;;;;5037852;28;20179;-81
2022/12/05 13:07:55;;;;;;;21.55;14.75;;;2.00;99.90;;;;;;5037812;28;20242;-81